createdAt,value
2022-11-07T00:00:35.904Z,100049.34
2022-11-07T00:03:02.706Z,100057.91
2022-11-07T00:05:29.412Z,100057.09
2022-11-07T00:07:56.136Z,100057.44
2022-11-07T00:10:22.734Z,100041.44
2022-11-07T00:12:49.395Z,100040.78
2022-11-07T00:15:16.052Z,100049.78
2022-11-07T00:17:42.612Z,100052.22
2022-11-07T00:20:09.823Z,100059.09
2022-11-07T00:22:36.601Z,100051.28
2022-11-07T00:25:03.620Z,100054.31
2022-11-07T00:27:30.482Z,100049.78
2022-11-07T00:29:57.302Z,100065.31
2022-11-07T00:32:24.066Z,100054.38
2022-11-07T00:34:50.897Z,100050.19
2022-11-07T00:37:17.567Z,100052.50
2022-11-07T00:39:44.272Z,100058.28
2022-11-07T00:42:10.823Z,100056.63
2022-11-07T00:44:37.412Z,100055.75
2022-11-07T00:47:04.091Z,100060.50
2022-11-07T00:49:30.684Z,100061.72
2022-11-07T00:51:57.420Z,100059.78
2022-11-07T00:54:24.288Z,100061.06
2022-11-07T00:56:51.070Z,100061.47
2022-11-07T00:59:18.060Z,100053.63
2022-11-07T01:01:44.865Z,100065.53
2022-11-07T01:04:31.345Z,100061.94
2022-11-07T01:06:58.321Z,100068.88
2022-11-07T01:09:25.014Z,100060.84
2022-11-07T01:11:51.677Z,100070.16
2022-11-07T01:14:21.313Z,100071.34
2022-11-07T01:16:48.093Z,100077.72
2022-11-07T01:19:15.178Z,100076.44
2022-11-07T01:21:43.232Z,100076.25
2022-11-07T01:24:11.927Z,100077.41
2022-11-07T01:26:39.578Z,100075.50
2022-11-07T01:29:06.830Z,100081.72
2022-11-07T01:31:33.675Z,100083.81
2022-11-07T01:34:00.926Z,100082.22
2022-11-07T01:36:27.663Z,100075.25
2022-11-07T01:38:54.836Z,100073.38
2022-11-07T01:41:28.445Z,100066.22
2022-11-07T01:44:07.020Z,100069.69
2022-11-07T01:46:44.520Z,100074.56
2022-11-07T01:49:26.034Z,100078.69
2022-11-07T01:52:21.304Z,100073.13
2022-11-07T01:54:50.416Z,100076.38
2022-11-07T01:57:47.134Z,100082.47
2022-11-07T02:00:17.633Z,100074.47
2022-11-07T02:02:46.719Z,100076.13
2022-11-07T02:05:24.445Z,100078.94
2022-11-07T02:07:51.203Z,100076.59
2022-11-07T02:10:18.576Z,100074.47
2022-11-07T02:12:45.709Z,100074.47
2022-11-07T02:15:12.502Z,100078.53
2022-11-07T02:17:39.538Z,100073.13
2022-11-07T02:20:06.805Z,100068.13
2022-11-07T02:22:36.638Z,100077.13
2022-11-07T02:25:07.476Z,100081.53
2022-11-07T02:27:34.927Z,100075.16
2022-11-07T02:30:06.836Z,100074.69
2022-11-07T02:32:33.868Z,100070.94
2022-11-07T02:35:07.425Z,100077.59
2022-11-07T02:37:38.516Z,100077.31
2022-11-07T02:40:09.605Z,100082.72
2022-11-07T02:42:44.591Z,100074.06
2022-11-07T02:45:15.951Z,100076.50
2022-11-07T02:47:42.906Z,100075.31
2022-11-07T02:50:11.530Z,100070.41
2022-11-07T02:52:38.312Z,100072.84
2022-11-07T02:55:06.356Z,100072.06
2022-11-07T02:57:33.783Z,100076.03
2022-11-07T03:00:00.889Z,100072.38
2022-11-07T03:02:27.977Z,100075.75
2022-11-07T03:04:54.651Z,100073.00
2022-11-07T03:07:21.284Z,100079.06
2022-11-07T03:09:47.869Z,100063.53
2022-11-07T03:12:14.683Z,100060.81
2022-11-07T03:14:50.259Z,100062.31
2022-11-07T03:17:16.881Z,100063.22
2022-11-07T03:19:43.543Z,100064.59
2022-11-07T03:22:10.148Z,100060.81
2022-11-07T03:24:36.871Z,100058.72
2022-11-07T03:27:03.470Z,100057.22
2022-11-07T03:29:30.106Z,100063.09
2022-11-07T03:31:56.896Z,100067.78
2022-11-07T03:34:23.631Z,100064.59
2022-11-07T03:36:50.378Z,100071.25
2022-11-07T03:39:19.515Z,100074.47
2022-11-07T03:41:49.750Z,100071.31
2022-11-07T03:44:16.347Z,100081.50
2022-11-07T03:46:42.988Z,100073.16
2022-11-07T03:49:09.606Z,100079.69
2022-11-07T03:51:36.201Z,100089.44
2022-11-07T03:54:02.972Z,100084.38
2022-11-07T03:56:29.664Z,100088.06
2022-11-07T03:58:56.411Z,100090.44
2022-11-07T04:01:23.308Z,100097.47
2022-11-07T04:03:55.194Z,100088.94
2022-11-07T04:06:23.459Z,100090.44
2022-11-07T04:08:50.112Z,100094.56
2022-11-07T04:11:35.630Z,100090.28
2022-11-07T04:14:20.713Z,100083.41
2022-11-07T04:17:05.905Z,100076.09
2022-11-07T04:19:33.886Z,100082.03
2022-11-07T04:22:00.496Z,100091.78
2022-11-07T04:24:27.401Z,100090.28
2022-11-07T04:27:12.628Z,100099.28
2022-11-07T04:29:39.234Z,100097.16
2022-11-07T04:32:05.833Z,100100.72
2022-11-07T04:34:32.375Z,100105.34
2022-11-07T04:36:58.966Z,100107.50
2022-11-07T04:39:25.793Z,100113.47
2022-11-07T04:41:52.397Z,100111.22
2022-11-07T04:44:19.007Z,100118.72
2022-11-07T04:46:45.962Z,100110.06
2022-11-07T04:49:15.176Z,100103.91
2022-11-07T04:51:43.118Z,100116.28
2022-11-07T04:54:16.261Z,100116.94
2022-11-07T04:56:42.807Z,100117.09
2022-11-07T04:59:09.387Z,100107.34
2022-11-07T05:01:36.052Z,100112.22
2022-11-07T05:04:02.694Z,100115.19
2022-11-07T05:06:31.942Z,100105.56
2022-11-07T05:08:58.575Z,100107.03
2022-11-07T05:11:25.158Z,100114.53
2022-11-07T05:13:51.774Z,100112.22
2022-11-07T05:16:18.477Z,100112.88
2022-11-07T05:18:45.699Z,100119.81
2022-11-07T05:21:12.264Z,100114.38
2022-11-07T05:23:39.000Z,100112.78
2022-11-07T05:26:05.826Z,100117.38
2022-11-07T05:28:38.651Z,100108.44
2022-11-07T05:31:07.693Z,100116.81
2022-11-07T05:33:35.171Z,100111.25
2022-11-07T05:36:10.393Z,100098.81
2022-11-07T05:38:37.293Z,100105.72
2022-11-07T05:41:04.671Z,100107.53
2022-11-07T05:43:31.412Z,100110.97
2022-11-07T05:46:01.650Z,100106.25
2022-11-07T05:48:28.629Z,100108.28
2022-11-07T05:50:55.185Z,100104.84
2022-11-07T05:53:21.905Z,100103.13
2022-11-07T05:55:48.835Z,100107.34
2022-11-07T05:58:15.432Z,100102.16
2022-11-07T06:00:42.159Z,100103.13
2022-11-07T06:03:09.427Z,100105.72
2022-11-07T06:05:39.030Z,100111.25
2022-11-07T06:08:15.868Z,100114.22
2022-11-07T06:10:43.280Z,100115.97
2022-11-07T06:13:13.592Z,100112.59
2022-11-07T06:15:41.050Z,100121.41
2022-11-07T06:18:11.267Z,100118.34
2022-11-07T06:20:38.009Z,100127.63
2022-11-07T06:23:06.088Z,100125.00
2022-11-07T06:25:33.375Z,100119.34
2022-11-07T06:28:06.174Z,100126.38
2022-11-07T06:30:33.059Z,100123.88
2022-11-07T06:33:09.105Z,100123.41
2022-11-07T06:35:35.874Z,100117.19
2022-11-07T06:38:04.034Z,100127.47
2022-11-07T06:40:31.277Z,100133.34
2022-11-07T06:43:10.732Z,100134.97
2022-11-07T06:45:38.134Z,100129.63
2022-11-07T06:48:05.489Z,100142.34
2022-11-07T06:50:32.419Z,100141.00
2022-11-07T06:53:03.950Z,100139.38
2022-11-07T06:55:30.548Z,100142.16
2022-11-07T06:58:01.508Z,100137.47
2022-11-07T07:00:30.216Z,100144.78
2022-11-07T07:02:58.862Z,100147.38
2022-11-07T07:05:26.295Z,100150.34
2022-11-07T07:07:54.933Z,100150.19
2022-11-07T07:10:21.541Z,100152.63
2022-11-07T07:12:48.107Z,100159.66
2022-11-07T07:15:14.762Z,100160.28
2022-11-07T07:17:41.403Z,100161.09
2022-11-07T07:20:08.711Z,100165.69
2022-11-07T07:22:35.275Z,100173.81
2022-11-07T07:25:01.917Z,100180.50
2022-11-07T07:27:28.486Z,100176.78
2022-11-07T07:29:54.980Z,100187.72
2022-11-07T07:32:25.157Z,100181.66
2022-11-07T07:34:52.265Z,100189.84
2022-11-07T07:37:19.202Z,100199.28
2022-11-07T07:39:45.999Z,100193.56
2022-11-07T07:42:12.763Z,100198.31
2022-11-07T07:44:44.357Z,100197.50
2022-11-07T07:47:11.665Z,100202.06
2022-11-07T07:49:38.892Z,100203.84
2022-11-07T07:52:05.800Z,100208.59
2022-11-07T07:54:32.450Z,100213.16
2022-11-07T07:56:59.295Z,100207.59
2022-11-07T07:59:25.917Z,100217.75
2022-11-07T08:01:56.916Z,100212.88
2022-11-07T08:04:24.282Z,100208.41
2022-11-07T08:06:50.900Z,100210.38
2022-11-07T08:09:19.368Z,100214.31
2022-11-07T08:11:45.907Z,100220.03
2022-11-07T08:14:12.440Z,100213.81
2022-11-07T08:16:38.954Z,100216.09
2022-11-07T08:19:05.534Z,100222.63
2022-11-07T08:21:32.228Z,100214.50
2022-11-07T08:23:59.105Z,100221.66
2022-11-07T08:26:26.234Z,100223.28
2022-11-07T08:28:54.110Z,100224.78
2022-11-07T08:31:21.063Z,100225.59
2022-11-07T08:33:47.779Z,100226.25
2022-11-07T08:36:14.648Z,100230.13
2022-11-07T08:38:41.410Z,100228.44
2022-11-07T08:41:08.163Z,100226.09
2022-11-07T08:43:34.755Z,100233.78
2022-11-07T08:46:01.395Z,100235.38
2022-11-07T08:48:28.063Z,100244.88
2022-11-07T08:50:56.820Z,100242.44
2022-11-07T08:53:24.187Z,100250.13
2022-11-07T08:55:51.270Z,100246.69
2022-11-07T08:58:19.274Z,100238.16
2022-11-07T09:00:46.332Z,100247.94
2022-11-07T09:06:00.727Z,100253.97
2022-11-07T09:08:27.451Z,100251.16
2022-11-07T09:10:54.468Z,100263.38
2022-11-07T09:13:21.248Z,100259.56
2022-11-07T09:15:51.384Z,100259.16
2022-11-07T09:18:18.449Z,100263.56
2022-11-07T09:20:45.722Z,100273.78
2022-11-07T09:23:12.251Z,100262.50
2022-11-07T09:25:38.872Z,100267.38
2022-11-07T09:28:05.753Z,100269.50
2022-11-07T09:30:32.685Z,100272.13
2022-11-07T09:32:59.800Z,100268.16
2022-11-07T09:35:26.506Z,100276.19
2022-11-07T09:37:53.292Z,100275.00
2022-11-07T09:40:19.858Z,100268.78
2022-11-07T09:43:00.914Z,100277.25
2022-11-07T09:45:29.828Z,100280.41
2022-11-07T09:48:21.736Z,100290.63
2022-11-07T09:50:50.444Z,100290.16
2022-11-07T09:53:28.940Z,100294.63
2022-11-07T09:56:00.958Z,100283.50
2022-11-07T09:58:36.748Z,100287.41
2022-11-07T10:01:06.734Z,100282.81
2022-11-07T10:03:36.757Z,100281.19
2022-11-07T10:06:12.680Z,100277.53
2022-11-07T10:08:48.110Z,100280.31
2022-11-07T10:11:39.491Z,100281.47
2022-11-07T10:14:19.817Z,100276.50
2022-11-07T10:16:54.363Z,100280.56
2022-11-07T10:19:26.772Z,100275.47
2022-11-07T10:22:17.920Z,100276.28
2022-11-07T10:25:19.290Z,100282.19
2022-11-07T10:27:54.683Z,100284.91
2022-11-07T10:30:22.124Z,100289.28
2022-11-07T10:33:13.335Z,100301.50
2022-11-07T10:35:48.242Z,100297.56
2022-11-07T10:38:25.101Z,100296.88
2022-11-07T10:40:52.685Z,100306.31
2022-11-07T10:43:49.707Z,100294.69
2022-11-07T10:46:24.950Z,100301.75
2022-11-07T10:49:00.112Z,100295.19
2022-11-07T10:51:38.036Z,100306.31
2022-11-07T10:54:06.139Z,100303.63
2022-11-07T10:56:51.270Z,100309.69
2022-11-07T10:59:31.418Z,100315.25
2022-11-07T11:02:02.157Z,100300.53
2022-11-07T11:04:32.491Z,100309.47
2022-11-07T11:07:11.148Z,100302.94
2022-11-07T11:09:37.713Z,100303.06
2022-11-07T11:12:13.359Z,100301.59
2022-11-07T11:14:40.494Z,100308.81
2022-11-07T11:17:29.083Z,100303.53
2022-11-07T11:19:56.254Z,100295.34
2022-11-07T11:22:25.711Z,100290.28
2022-11-07T11:25:19.217Z,100295.63
2022-11-07T11:27:48.822Z,100294.66
2022-11-07T11:30:17.820Z,100292.34
2022-11-07T11:32:55.940Z,100287.59
2022-11-07T11:35:42.562Z,100278.09
2022-11-07T11:38:29.652Z,100277.53
2022-11-07T11:41:07.575Z,100279.81
2022-11-07T11:43:45.591Z,100282.97
2022-11-07T11:46:36.796Z,100284.00
2022-11-07T11:49:15.395Z,100288.19
2022-11-07T11:51:58.798Z,100290.28
2022-11-07T11:54:25.591Z,100286.56
2022-11-07T11:57:04.442Z,100294.25
2022-11-07T11:59:58.738Z,100290.28
2022-11-07T12:02:46.685Z,100286.59
2022-11-07T12:06:01.781Z,100279.28
2022-11-07T12:08:47.915Z,100277.75
2022-11-07T12:11:20.509Z,100277.44
2022-11-07T12:14:11.217Z,100286.13
2022-11-07T12:17:09.396Z,100269.16
2022-11-07T12:20:18.316Z,100277.19
2022-11-07T12:22:55.945Z,100274.41
2022-11-07T12:25:50.927Z,100281.03
2022-11-07T12:28:40.360Z,100277.31
2022-11-07T12:31:24.560Z,100273.84
2022-11-07T12:34:20.587Z,100278.22
2022-11-07T12:37:11.498Z,100276.16
2022-11-07T12:40:12.602Z,100270.81
2022-11-07T12:43:03.248Z,100267.59
2022-11-07T12:45:32.858Z,100276.53
2022-11-07T12:48:23.655Z,100285.91
2022-11-07T12:51:09.411Z,100281.50
2022-11-07T12:53:50.868Z,100276.84
2022-11-07T12:56:27.454Z,100275.47
2022-11-07T12:58:54.431Z,100276.41
2022-11-07T13:01:30.956Z,100262.69
2022-11-07T13:04:26.652Z,100265.00
2022-11-07T13:07:05.513Z,100277.09
2022-11-07T13:09:41.036Z,100273.94
2022-11-07T13:12:07.916Z,100256.09
2022-11-07T13:14:40.009Z,100274.91
2022-11-07T13:17:24.954Z,100264.56
2022-11-07T13:20:01.767Z,100267.13
2022-11-07T13:22:37.813Z,100267.81
2022-11-07T13:25:17.043Z,100275.81
2022-11-07T13:28:01.353Z,100265.47
2022-11-07T13:30:30.721Z,100265.59
2022-11-07T13:32:58.930Z,100265.25
2022-11-07T13:35:28.298Z,100261.31
2022-11-07T13:38:03.271Z,100259.34
2022-11-07T13:40:36.080Z,100255.72
2022-11-07T13:43:18.543Z,100257.56
2022-11-07T13:45:45.539Z,100245.59
2022-11-07T13:48:19.709Z,100252.00
2022-11-07T13:51:08.648Z,100241.09
2022-11-07T13:53:46.810Z,100238.75
2022-11-07T13:56:40.994Z,100238.19
2022-11-07T13:59:16.380Z,100233.19
2022-11-07T14:01:45.422Z,100236.47
2022-11-07T14:04:18.233Z,100232.03
2022-11-07T14:06:45.518Z,100229.94
2022-11-07T14:09:16.330Z,100231.78
2022-11-07T14:11:43.770Z,100237.38
2022-11-07T14:14:10.905Z,100251.78
2022-11-07T14:16:38.461Z,100240.38
2022-11-07T14:19:14.872Z,100236.22
2022-11-07T14:21:44.934Z,100247.81
2022-11-07T14:24:29.582Z,100239.00
2022-11-07T14:27:04.260Z,100243.06
2022-11-07T14:29:31.359Z,100242.94
2022-11-07T14:32:03.222Z,100249.78
2022-11-07T14:34:29.882Z,100255.72
2022-11-07T14:37:01.157Z,100259.41
2022-11-07T14:39:30.956Z,100257.81
2022-11-07T14:42:01.219Z,100265.81
2022-11-07T14:47:28.839Z,100246.66
2022-11-07T14:49:58.711Z,100252.00
2022-11-07T14:52:30.550Z,100259.91
2022-11-07T14:55:08.372Z,100260.59
2022-11-07T14:57:38.035Z,100251.75
2022-11-07T15:00:14.027Z,100256.63
2022-11-07T15:02:41.350Z,100257.56
2022-11-07T15:05:30.577Z,100260.56
2022-11-07T15:07:58.596Z,100256.88
2022-11-07T15:10:35.450Z,100263.47
2022-11-07T15:13:26.304Z,100266.16
2022-11-07T15:16:00.362Z,100263.47
2022-11-07T15:18:28.424Z,100261.16
2022-11-07T15:21:02.071Z,100268.25
2022-11-07T15:23:35.895Z,100265.91
2022-11-07T15:26:08.075Z,100254.44
2022-11-07T15:28:52.594Z,100261.16
2022-11-07T15:31:28.444Z,100260.00
2022-11-07T15:33:57.195Z,100260.34
2022-11-07T15:36:25.104Z,100250.72
2022-11-07T15:38:52.667Z,100257.81
2022-11-07T15:41:20.642Z,100252.69
2022-11-07T15:43:47.278Z,100263.03
2022-11-07T15:46:35.160Z,100260.81
2022-11-07T15:49:02.638Z,100260.34
2022-11-07T15:51:30.476Z,100268.47
2022-11-07T15:53:57.880Z,100263.13
2022-11-07T15:56:26.090Z,100270.44
2022-11-07T15:58:54.656Z,100266.13
2022-11-07T16:01:22.573Z,100271.44
2022-11-07T16:03:49.379Z,100269.47
2022-11-07T16:06:28.225Z,100265.88
2022-11-07T16:08:55.198Z,100257.28
2022-11-07T16:11:22.334Z,100257.47
2022-11-07T16:13:50.853Z,100258.41
2022-11-07T16:16:24.394Z,100260.13
2022-11-07T16:18:52.951Z,100254.44
2022-11-07T16:21:20.558Z,100262.78
2022-11-07T16:23:49.995Z,100261.91
2022-11-07T16:26:28.220Z,100262.59
2022-11-07T16:28:54.844Z,100266.56
2022-11-07T16:31:21.537Z,100266.09
2022-11-07T16:33:48.224Z,100270.16
2022-11-07T16:36:26.543Z,100274.81
2022-11-07T16:38:53.185Z,100275.44
2022-11-07T16:41:20.011Z,100283.31
2022-11-07T16:43:47.370Z,100277.28
2022-11-07T16:46:19.947Z,100277.72
2022-11-07T16:48:48.966Z,100271.97
2022-11-07T16:51:18.570Z,100262.53
2022-11-07T16:53:45.738Z,100264.84
2022-11-07T16:56:23.057Z,100263.22
2022-11-07T16:58:49.915Z,100275.69
2022-11-07T17:01:16.767Z,100271.69
2022-11-07T17:03:43.592Z,100274.22
2022-11-07T17:06:18.064Z,100279.09
2022-11-07T17:08:45.235Z,100281.63
2022-11-07T17:11:17.107Z,100265.81
2022-11-07T17:13:44.909Z,100276.44
2022-11-07T17:16:24.168Z,100282.03
2022-11-07T17:18:52.375Z,100267.84
2022-11-07T17:21:30.427Z,100275.03
2022-11-07T17:23:59.447Z,100271.69
2022-11-07T17:26:29.778Z,100279.72
2022-11-07T17:28:57.629Z,100284.81
2022-11-07T17:31:25.145Z,100287.28
2022-11-07T17:33:51.981Z,100285.75
2022-11-07T17:36:30.816Z,100288.91
2022-11-07T17:39:08.097Z,100286.19
2022-11-07T17:41:34.640Z,100293.78
2022-11-07T17:44:01.379Z,100287.13
2022-11-07T17:46:30.753Z,100293.69
2022-11-07T17:48:58.480Z,100295.91
2022-11-07T17:51:26.748Z,100300.31
2022-11-07T17:53:57.556Z,100297.97
2022-11-07T17:56:29.670Z,100291.69
2022-11-07T17:58:59.201Z,100291.78
2022-11-07T18:01:28.697Z,100299.09
2022-11-07T18:03:55.867Z,100293.53
2022-11-07T18:06:23.816Z,100298.41
2022-11-07T18:08:55.991Z,100295.84
2022-11-07T18:11:25.690Z,100290.16
2022-11-07T18:13:54.046Z,100295.75
2022-11-07T18:16:27.021Z,100294.09
2022-11-07T18:18:53.659Z,100298.91
2022-11-07T18:21:20.808Z,100288.22
2022-11-07T18:23:47.372Z,100287.88
2022-11-07T18:26:17.300Z,100286.97
2022-11-07T18:28:44.272Z,100292.19
2022-11-07T18:31:19.566Z,100289.31
2022-11-07T18:33:47.478Z,100284.31
2022-11-07T18:36:18.188Z,100288.03
2022-11-07T18:38:45.395Z,100292.81
2022-11-07T18:41:20.467Z,100292.69
2022-11-07T18:43:47.832Z,100287.84
2022-11-07T18:46:16.514Z,100285.69
2022-11-07T18:48:43.411Z,100291.34
2022-11-07T18:51:17.535Z,100299.44
2022-11-07T18:53:45.069Z,100288.28
2022-11-07T18:56:13.148Z,100288.66
2022-11-07T18:58:43.637Z,100286.31
2022-11-07T19:01:13.611Z,100289.66
2022-11-07T19:03:41.758Z,100293.03
2022-11-07T19:06:11.260Z,100288.97
2022-11-07T19:08:40.787Z,100288.28
2022-11-07T19:11:11.677Z,100294.69
2022-11-07T19:13:43.943Z,100294.56
2022-11-07T19:16:12.953Z,100287.72
2022-11-07T19:18:39.549Z,100298.19
2022-11-07T19:21:06.283Z,100303.56
2022-11-07T19:23:36.300Z,100303.19
2022-11-07T19:26:04.281Z,100294.13
2022-11-07T19:28:30.857Z,100290.16
2022-11-07T19:30:58.101Z,100296.91
2022-11-07T19:33:24.831Z,100297.34
2022-11-07T19:36:00.105Z,100297.34
2022-11-07T19:38:27.860Z,100297.97
2022-11-07T19:40:54.476Z,100298.06
2022-11-07T19:43:21.039Z,100298.53
2022-11-07T19:45:48.153Z,100296.56
2022-11-07T19:48:16.659Z,100301.94
2022-11-07T19:50:43.167Z,100293.56
2022-11-07T19:53:09.801Z,100287.28
2022-11-07T19:55:37.446Z,100291.59
2022-11-07T19:58:04.133Z,100293.00
2022-11-07T20:00:30.778Z,100290.66
2022-11-07T20:02:57.891Z,100293.19
2022-11-07T20:05:24.568Z,100289.94
2022-11-07T20:07:55.389Z,100300.94
2022-11-07T20:10:23.785Z,100302.06
2022-11-07T20:12:50.463Z,100307.09
2022-11-07T20:15:17.454Z,100303.50
2022-11-07T20:17:44.053Z,100303.03
2022-11-07T20:20:13.644Z,100302.94
2022-11-07T20:22:46.555Z,100300.16
2022-11-07T20:25:13.552Z,100310.28
2022-11-07T20:27:40.424Z,100320.31
2022-11-07T20:30:07.974Z,100309.72
2022-11-07T20:32:34.673Z,100313.28
2022-11-07T20:35:01.273Z,100308.91
2022-11-07T20:37:27.997Z,100313.19
2022-11-07T20:39:54.803Z,100318.91
2022-11-07T20:42:21.548Z,100312.50
2022-11-07T20:44:49.879Z,100311.81
2022-11-07T20:47:17.352Z,100316.31
2022-11-07T20:49:44.325Z,100324.69
2022-11-07T20:52:10.941Z,100313.28
2022-11-07T20:54:37.764Z,100316.91
2022-11-07T20:57:05.058Z,100313.66
2022-11-07T20:59:32.028Z,100317.72
2022-11-07T21:02:03.664Z,100316.66
2022-11-07T21:04:44.609Z,100315.16
2022-11-07T21:07:19.920Z,100309.09
2022-11-07T21:09:46.881Z,100303.50
2022-11-07T21:12:14.175Z,100299.91
2022-11-07T21:14:42.235Z,100300.72
2022-11-07T21:17:10.000Z,100303.50
2022-11-07T21:19:37.142Z,100294.00
2022-11-07T21:22:04.360Z,100289.81
2022-11-07T21:24:31.842Z,100292.41
2022-11-07T21:26:59.093Z,100292.16
2022-11-07T21:29:29.534Z,100281.84
2022-11-07T21:31:56.985Z,100277.88
2022-11-07T21:34:24.148Z,100273.59
2022-11-07T21:36:50.800Z,100269.88
2022-11-07T21:39:17.897Z,100274.28
2022-11-07T21:41:44.610Z,100264.78
2022-11-07T21:44:12.334Z,100263.13
2022-11-07T21:46:39.201Z,100270.09
2022-11-07T21:49:06.318Z,100263.13
2022-11-07T21:51:36.846Z,100256.28
2022-11-07T21:54:04.839Z,100247.44
2022-11-07T21:56:34.220Z,100241.66
2022-11-07T21:59:05.527Z,100243.88
2022-11-07T22:01:37.175Z,100246.28
2022-11-07T22:04:08.568Z,100242.47
2022-11-07T22:06:38.422Z,100244.00
2022-11-07T22:09:06.952Z,100240.38
2022-11-07T22:11:33.734Z,100237.84
2022-11-07T22:14:00.499Z,100238.06
2022-11-07T22:16:27.343Z,100232.03
2022-11-07T22:18:54.032Z,100225.66
2022-11-07T22:21:23.263Z,100227.16
2022-11-07T22:23:50.573Z,100218.81
2022-11-07T22:26:25.606Z,100221.13
2022-11-07T22:28:52.993Z,100220.91
2022-11-07T22:31:25.176Z,100219.38
2022-11-07T22:33:53.249Z,100211.84
2022-11-07T22:36:20.673Z,100223.09
2022-11-07T22:38:47.303Z,100219.06
2022-11-07T22:41:17.585Z,100230.44
2022-11-07T22:43:44.509Z,100227.41
2022-11-07T22:46:13.565Z,100226.25
2022-11-07T22:48:40.952Z,100223.81
2022-11-07T22:51:13.212Z,100222.78
2022-11-07T22:53:40.589Z,100218.59
2022-11-07T22:56:12.433Z,100218.59
2022-11-07T22:58:40.123Z,100218.34
2022-11-07T23:01:17.213Z,100213.72
2022-11-07T23:03:44.612Z,100211.06
2022-11-07T23:06:11.337Z,100205.84
2022-11-07T23:08:38.648Z,100210.00
2022-11-07T23:11:45.306Z,100216.03
2022-11-07T23:14:00.602Z,100206.06
2022-11-07T23:16:32.796Z,100208.94
2022-11-07T23:19:02.633Z,100206.06
2022-11-07T23:21:29.751Z,100206.97
2022-11-07T23:23:58.625Z,100209.06
2022-11-07T23:26:32.623Z,100210.72
2022-11-07T23:29:21.059Z,100213.94
2022-11-07T23:31:49.920Z,100196.06
2022-11-07T23:34:18.410Z,100192.34
2022-11-07T23:36:45.167Z,100192.59
2022-11-07T23:39:15.956Z,100198.38
2022-11-07T23:41:43.113Z,100187.03
2022-11-07T23:44:10.541Z,100192.13
2022-11-07T23:46:55.956Z,100183.25
2022-11-07T23:49:41.942Z,100183.75
2022-11-07T23:52:09.002Z,100187.97
2022-11-07T23:54:54.127Z,100176.91
2022-11-07T23:57:20.775Z,100176.34
